KBJI/BJI METAR and TAF weather

Enter ICAO airport designator
Station Type Date Time Source
KBJI METAR 2019/12/12 11:55 UTC NOAA

KBJI 121155Z AUTO 10007KT 3SM -SN SCT021 BKN028 M16/M19 A3016 RMK AO2 T11631186 11163 21170


Station Type Date Time Source
KBJI Decoded METAR 2019/12/12 11:55 UTC NOAA

Bemidji, MN, United States (KBJI) 47-30N 094-56W 420M
Dec 12, 2019 - 06:55 AM EST / 2019.12.12 1155 UTC
Wind: from the E (100 degrees) at 8 MPH (7 KT):0
Visibility: 3 mile(s):0
Sky conditions: mostly cloudy
Weather: light snow
Temperature: 2.7 F (-16.3 C)
Windchill: -11 F (-24 C):2
Dew Point: -1.5 F (-18.6 C)
Relative Humidity: 82%
Pressure (altimeter): 30.16 in. Hg (1021 hPa)
ob: KBJI 121155Z AUTO 10007KT 3SM -SN SCT021 BKN028 M16/M19 A3016 RMK AO2 T11631186 11163 21170
cycle: 12

Station Type Date Time Source
KBJI TAF 2019/12/12 12:36 UTC NOAA

TAF KBJI 121135Z 1212/1312 11006KT 2SM -SN OVC015
FM121400 08005KT P6SM OVC025
FM121500 08005KT P6SM OVC050
FM130700 VRB03KT P6SM BKN025

Example: see airport list